createdAt,value
2023-04-19T00:00:14.606Z,30.65
2023-04-19T00:02:42.866Z,28.83
2023-04-19T00:05:12.065Z,28.75
2023-04-19T00:07:39.056Z,28.65
2023-04-19T00:10:07.382Z,29.02
2023-04-19T00:12:34.216Z,27.38
2023-04-19T00:15:02.497Z,27.92
2023-04-19T00:17:29.747Z,26.60
2023-04-19T00:19:56.960Z,27.67
2023-04-19T00:22:23.820Z,26.35
2023-04-19T00:24:50.645Z,25.50
2023-04-19T00:27:17.694Z,26.27
2023-04-19T00:29:44.593Z,26.90
2023-04-19T00:32:12.881Z,25.15
2023-04-19T00:34:39.684Z,24.90
2023-04-19T00:37:06.701Z,25.70
2023-04-19T00:39:33.571Z,27.00
2023-04-19T00:42:01.129Z,27.02
2023-04-19T00:44:28.094Z,27.25
2023-04-19T00:46:56.256Z,25.30
2023-04-19T00:49:25.424Z,26.73
2023-04-19T00:51:52.545Z,26.17
2023-04-19T00:54:19.969Z,25.75
2023-04-19T00:56:46.864Z,27.23
2023-04-19T00:59:15.289Z,25.73
2023-04-19T01:01:42.796Z,25.52
2023-04-19T01:04:10.115Z,27.70
2023-04-19T01:06:40.450Z,28.33
2023-04-19T01:09:07.329Z,27.00
2023-04-19T01:11:34.302Z,28.75
2023-04-19T01:14:01.181Z,27.98
2023-04-19T01:16:28.375Z,29.10
2023-04-19T01:18:55.440Z,29.98
2023-04-19T01:21:22.664Z,29.27
2023-04-19T01:23:50.866Z,27.88
2023-04-19T01:26:18.464Z,29.67
2023-04-19T01:28:45.617Z,31.35
2023-04-19T01:31:12.451Z,31.17
2023-04-19T01:33:39.293Z,28.70
2023-04-19T01:36:07.058Z,28.85
2023-04-19T01:38:35.078Z,28.02
2023-04-19T01:41:03.360Z,28.95
2023-04-19T01:43:30.362Z,27.83
2023-04-19T01:45:57.171Z,29.08
2023-04-19T01:48:23.989Z,29.73
2023-04-19T01:50:50.822Z,29.75
2023-04-19T01:53:17.729Z,28.75
2023-04-19T01:55:44.571Z,27.23
2023-04-19T01:58:12.749Z,30.08
2023-04-19T02:00:39.603Z,29.35
2023-04-19T02:03:06.587Z,31.38
2023-04-19T02:05:33.420Z,32.85
2023-04-19T02:08:01.545Z,29.60
2023-04-19T02:10:28.480Z,32.42
2023-04-19T02:12:55.352Z,29.60
2023-04-19T02:15:23.806Z,28.15
2023-04-19T02:17:50.731Z,31.05
2023-04-19T02:20:17.715Z,35.15
2023-04-19T02:22:44.558Z,34.63
2023-04-19T02:25:11.442Z,34.88
2023-04-19T02:27:38.277Z,36.30
2023-04-19T02:30:06.269Z,36.40
2023-04-19T02:32:34.651Z,37.95
2023-04-19T02:35:01.519Z,35.35
2023-04-19T02:37:28.333Z,36.63
2023-04-19T02:39:55.238Z,35.70
2023-04-19T02:42:22.057Z,36.78
2023-04-19T02:44:48.856Z,36.65
2023-04-19T02:47:15.881Z,35.00
2023-04-19T02:49:44.146Z,37.50
2023-04-19T02:52:11.083Z,39.20
2023-04-19T02:54:37.968Z,35.55
2023-04-19T02:57:04.764Z,37.97
2023-04-19T02:59:31.650Z,36.83
2023-04-19T03:01:58.569Z,37.85
2023-04-19T03:04:25.621Z,38.83
2023-04-19T03:06:53.964Z,36.60
2023-04-19T03:09:20.870Z,37.88
2023-04-19T03:11:47.684Z,36.72
2023-04-19T03:14:14.838Z,36.63
2023-04-19T03:16:41.842Z,35.67
2023-04-19T03:19:08.724Z,38.45
2023-04-19T03:21:35.580Z,36.00
2023-04-19T03:24:04.127Z,35.33
2023-04-19T03:26:31.425Z,33.22
2023-04-19T03:28:58.360Z,35.50
2023-04-19T03:31:25.282Z,37.67
2023-04-19T03:33:52.197Z,35.88
2023-04-19T03:36:19.279Z,34.85
2023-04-19T03:38:46.370Z,35.05
2023-04-19T03:41:21.194Z,34.42
2023-04-19T03:43:48.105Z,37.47
2023-04-19T03:46:15.011Z,38.25
2023-04-19T03:48:41.915Z,37.63
2023-04-19T03:51:09.074Z,37.20
2023-04-19T03:53:36.542Z,39.80
2023-04-19T03:56:03.458Z,38.67
2023-04-19T03:58:31.719Z,38.25
2023-04-19T04:00:58.803Z,39.03
2023-04-19T04:03:26.235Z,37.88
2023-04-19T04:05:53.562Z,36.13
2023-04-19T04:08:20.545Z,36.20
2023-04-19T04:10:47.363Z,36.28
2023-04-19T04:13:14.229Z,35.95
2023-04-19T04:15:42.547Z,34.30
2023-04-19T04:18:09.416Z,35.88
2023-04-19T04:20:36.377Z,32.95
2023-04-19T04:23:03.375Z,30.17
2023-04-19T04:25:33.074Z,32.20
2023-04-19T04:28:00.174Z,31.13
2023-04-19T04:30:28.913Z,31.95
2023-04-19T04:33:00.381Z,30.73
2023-04-19T04:35:27.929Z,30.77
2023-04-19T04:37:54.750Z,30.38
2023-04-19T04:40:22.133Z,32.03
2023-04-19T04:42:49.680Z,30.90
2023-04-19T04:45:18.548Z,32.20
2023-04-19T04:47:46.521Z,31.00
2023-04-19T04:50:14.807Z,32.67
2023-04-19T04:52:41.693Z,31.23
2023-04-19T04:55:09.503Z,29.88
2023-04-19T04:57:36.449Z,29.80
2023-04-19T05:00:05.410Z,28.48
2023-04-19T05:02:32.663Z,28.92
2023-04-19T05:04:59.676Z,27.40
2023-04-19T05:07:27.880Z,29.05
2023-04-19T05:09:54.729Z,28.67
2023-04-19T05:12:21.577Z,29.08
2023-04-19T05:14:48.566Z,29.40
2023-04-19T05:17:15.452Z,28.02
2023-04-19T05:19:43.707Z,29.95
2023-04-19T05:22:10.774Z,29.48
2023-04-19T05:24:41.127Z,28.83
2023-04-19T05:27:09.740Z,30.42
2023-04-19T05:29:36.595Z,29.85
2023-04-19T05:32:03.514Z,28.65
2023-04-19T05:34:30.836Z,30.40
2023-04-19T05:36:57.769Z,30.45
2023-04-19T05:39:24.686Z,30.70
2023-04-19T05:41:52.958Z,29.95
2023-04-19T05:44:19.889Z,30.42
2023-04-19T05:46:46.685Z,28.58
2023-04-19T05:49:13.637Z,28.85
2023-04-19T05:51:40.483Z,29.80
2023-04-19T05:54:07.400Z,28.20
2023-04-19T05:56:34.250Z,28.08
2023-04-19T05:59:02.956Z,27.98
2023-04-19T06:01:30.303Z,25.58
2023-04-19T06:03:57.506Z,27.50
2023-04-19T06:06:24.870Z,24.70
2023-04-19T06:08:54.419Z,25.08
2023-04-19T06:11:28.921Z,23.77
2023-04-19T06:14:03.339Z,23.08
2023-04-19T06:16:30.379Z,24.50
2023-04-19T06:18:57.351Z,22.42
2023-04-19T06:21:24.373Z,22.75
2023-04-19T06:23:51.220Z,23.70
2023-04-19T06:26:18.168Z,22.40
2023-04-19T06:28:45.039Z,22.92
2023-04-19T06:31:13.445Z,22.10
2023-04-19T06:33:40.610Z,20.98
2023-04-19T06:36:08.054Z,18.98
2023-04-19T06:38:34.984Z,20.05
2023-04-19T06:41:01.879Z,20.80
2023-04-19T06:43:28.760Z,19.60
2023-04-19T06:45:58.674Z,20.05
2023-04-19T06:48:27.980Z,19.25
2023-04-19T06:50:55.052Z,19.48
2023-04-19T06:53:22.420Z,20.30
2023-04-19T06:55:49.451Z,19.15
2023-04-19T06:58:16.353Z,20.25
2023-04-19T07:00:43.208Z,19.65
2023-04-19T07:03:10.290Z,20.27
2023-04-19T07:05:38.596Z,21.42
2023-04-19T07:08:05.604Z,21.70
2023-04-19T07:10:32.388Z,22.13
2023-04-19T07:12:59.253Z,20.98
2023-04-19T07:15:26.134Z,23.23
2023-04-19T07:17:53.023Z,24.70
2023-04-19T07:20:20.595Z,23.65
2023-04-19T07:22:48.785Z,22.70
2023-04-19T07:25:15.797Z,23.27
2023-04-19T07:27:42.688Z,25.40
2023-04-19T07:30:11.612Z,27.00
2023-04-19T07:32:38.642Z,27.38
2023-04-19T07:35:07.093Z,26.98
2023-04-19T07:37:34.016Z,26.63
2023-04-19T07:40:02.288Z,26.35
2023-04-19T07:42:30.275Z,25.95
2023-04-19T07:44:57.263Z,27.23
2023-04-19T07:47:24.160Z,28.40
2023-04-19T07:49:52.216Z,27.17
2023-04-19T07:52:19.099Z,31.05
2023-04-19T07:54:46.532Z,29.75
2023-04-19T07:57:14.814Z,29.65
2023-04-19T07:59:41.674Z,27.58
2023-04-19T08:02:08.758Z,29.05
2023-04-19T08:07:04.233Z,26.83
2023-04-19T08:09:31.228Z,25.27
2023-04-19T08:11:58.398Z,24.13
2023-04-19T08:14:34.864Z,24.60
2023-04-19T08:17:24.128Z,21.85
2023-04-19T08:19:53.941Z,22.80
2023-04-19T08:22:21.807Z,24.50
2023-04-19T08:24:49.970Z,22.70
2023-04-19T08:27:17.012Z,23.60
2023-04-19T08:29:45.822Z,22.08
2023-04-19T08:32:13.412Z,19.60
2023-04-19T08:34:40.866Z,18.95
2023-04-19T08:37:08.110Z,18.30
2023-04-19T08:39:35.504Z,17.92
2023-04-19T08:42:11.014Z,15.88
2023-04-19T08:47:27.034Z,15.20
2023-04-19T08:50:11.156Z,16.20
2023-04-19T08:52:54.793Z,16.33
2023-04-19T08:55:22.797Z,16.98
2023-04-19T08:57:49.726Z,14.95
2023-04-19T09:00:19.315Z,15.73
2023-04-19T09:02:48.447Z,15.02
2023-04-19T09:05:18.353Z,15.52
2023-04-19T09:07:46.610Z,15.82
2023-04-19T09:10:15.096Z,15.93
2023-04-19T09:12:42.757Z,16.10
2023-04-19T09:15:11.222Z,14.88
2023-04-19T09:17:40.818Z,14.52
2023-04-19T09:20:08.566Z,15.23
2023-04-19T09:22:35.398Z,13.98
2023-04-19T09:25:37.248Z,14.80
2023-04-19T09:27:49.064Z,15.07
2023-04-19T09:30:32.446Z,13.52
2023-04-19T09:33:02.472Z,12.73
2023-04-19T09:35:41.384Z,13.90
2023-04-19T09:38:08.588Z,13.55
2023-04-19T09:40:35.856Z,13.50
2023-04-19T09:43:22.947Z,13.93
2023-04-19T09:45:51.096Z,12.60
2023-04-19T09:48:19.407Z,12.32
2023-04-19T09:51:00.115Z,11.27
2023-04-19T09:53:30.636Z,11.65
2023-04-19T09:56:02.076Z,11.98
2023-04-19T09:58:41.654Z,11.07
2023-04-19T10:01:16.645Z,11.73
2023-04-19T10:03:49.674Z,12.27
2023-04-19T10:08:50.223Z,10.52
2023-04-19T10:11:18.900Z,11.05
2023-04-19T10:13:49.018Z,10.00
2023-04-19T10:16:20.136Z,10.38
2023-04-19T10:18:50.629Z,11.15
2023-04-19T10:21:19.364Z,10.80
2023-04-19T10:23:46.692Z,11.40
2023-04-19T10:26:13.575Z,11.02
2023-04-19T10:28:42.078Z,11.15
2023-04-19T10:31:12.897Z,11.02
2023-04-19T10:33:40.773Z,10.18
2023-04-19T10:36:11.884Z,10.23
2023-04-19T10:38:40.522Z,10.45
2023-04-19T10:41:14.485Z,9.75
2023-04-19T10:43:46.281Z,9.65
2023-04-19T10:46:36.426Z,11.30
2023-04-19T10:49:05.447Z,9.20
2023-04-19T10:51:44.482Z,9.95
2023-04-19T10:54:31.051Z,10.63
2023-04-19T10:57:00.722Z,11.23
2023-04-19T10:59:29.628Z,10.68
2023-04-19T11:01:58.215Z,9.60
2023-04-19T11:05:00.428Z,9.15
2023-04-19T11:07:29.628Z,10.57
2023-04-19T11:09:56.571Z,10.57
2023-04-19T11:12:23.474Z,11.63
2023-04-19T11:14:53.414Z,11.07
2023-04-19T11:17:25.598Z,10.55
2023-04-19T11:19:57.028Z,10.80
2023-04-19T11:22:35.262Z,11.20
2023-04-19T11:25:06.463Z,10.18
2023-04-19T11:27:34.113Z,10.50
2023-04-19T11:30:05.944Z,10.48
2023-04-19T11:32:33.549Z,10.70
2023-04-19T11:35:06.531Z,10.55
2023-04-19T11:37:36.354Z,11.50
2023-04-19T11:40:07.816Z,10.85
2023-04-19T11:42:35.025Z,10.27
2023-04-19T11:45:02.647Z,11.07
2023-04-19T11:47:29.832Z,10.57
2023-04-19T11:49:56.785Z,10.65
2023-04-19T11:52:24.960Z,11.43
2023-04-19T11:54:54.117Z,10.85
2023-04-19T11:57:31.036Z,11.50
2023-04-19T12:00:12.251Z,11.02
2023-04-19T12:02:40.367Z,11.02
2023-04-19T12:05:09.063Z,11.57
2023-04-19T12:07:36.168Z,11.80
2023-04-19T12:10:11.978Z,12.20
2023-04-19T12:12:39.608Z,10.05
2023-04-19T12:15:07.471Z,10.82
2023-04-19T12:17:35.374Z,10.95
2023-04-19T12:20:06.059Z,10.35
2023-04-19T12:22:32.931Z,11.20
2023-04-19T12:25:00.137Z,10.93
2023-04-19T12:27:28.371Z,11.23
2023-04-19T12:29:55.527Z,10.32
2023-04-19T12:32:22.486Z,9.80
2023-04-19T12:34:49.388Z,10.45
2023-04-19T12:37:16.173Z,9.63
2023-04-19T12:39:43.010Z,8.82
2023-04-19T12:42:09.832Z,8.95
2023-04-19T12:44:38.070Z,9.43
2023-04-19T12:47:04.956Z,8.77
2023-04-19T12:49:31.875Z,8.90
2023-04-19T12:51:58.716Z,9.00
2023-04-19T12:54:25.532Z,8.48
2023-04-19T12:56:52.842Z,8.23
2023-04-19T12:59:19.817Z,8.73
2023-04-19T13:01:48.158Z,8.43
2023-04-19T13:04:15.418Z,8.20
2023-04-19T13:06:42.724Z,8.32
2023-04-19T13:11:39.297Z,6.72
2023-04-19T13:14:06.208Z,7.07
2023-04-19T13:16:33.555Z,6.97
2023-04-19T13:19:01.886Z,5.95
2023-04-19T13:21:28.767Z,6.55
2023-04-19T13:23:55.988Z,6.70
2023-04-19T13:26:22.913Z,7.28
2023-04-19T13:28:49.937Z,6.85
2023-04-19T13:31:16.897Z,6.10
2023-04-19T13:33:43.904Z,6.88
2023-04-19T13:36:12.297Z,6.68
2023-04-19T13:38:39.121Z,6.90
2023-04-19T13:41:06.004Z,6.68
2023-04-19T13:43:32.871Z,6.47
2023-04-19T13:45:59.859Z,6.22
2023-04-19T13:48:29.305Z,5.70
2023-04-19T13:50:56.770Z,6.32
2023-04-19T13:53:26.789Z,5.50
2023-04-19T13:55:53.635Z,6.05
2023-04-19T13:58:20.505Z,5.80
2023-04-19T14:00:48.407Z,5.63
2023-04-19T14:03:15.616Z,5.47
2023-04-19T14:05:42.820Z,5.30
2023-04-19T14:08:10.777Z,4.45
2023-04-19T14:10:40.248Z,4.70
2023-04-19T14:13:07.367Z,4.68
2023-04-19T14:15:34.250Z,5.15
2023-04-19T14:18:01.556Z,4.60
2023-04-19T14:20:28.481Z,4.85
2023-04-19T14:22:56.225Z,5.07
2023-04-19T14:25:23.284Z,4.72
2023-04-19T14:27:51.683Z,4.28
2023-04-19T14:30:19.184Z,4.40
2023-04-19T14:32:46.523Z,4.47
2023-04-19T14:35:13.458Z,4.28
2023-04-19T14:37:40.354Z,4.97
2023-04-19T14:40:08.661Z,4.68
2023-04-19T14:42:35.519Z,4.65
2023-04-19T14:45:04.285Z,4.82
2023-04-19T14:47:31.145Z,3.85
2023-04-19T14:49:58.028Z,4.47
2023-04-19T14:52:25.909Z,3.97
2023-04-19T14:54:52.836Z,4.20
2023-04-19T14:57:20.405Z,3.92
2023-04-19T14:59:47.249Z,4.63
2023-04-19T15:02:15.662Z,4.75
2023-04-19T15:04:42.887Z,4.47
2023-04-19T15:07:10.208Z,4.22
2023-04-19T15:09:37.063Z,4.45
2023-04-19T15:12:04.166Z,4.38
2023-04-19T15:14:30.954Z,4.60
2023-04-19T15:16:57.888Z,3.83
2023-04-19T15:19:26.455Z,5.32
2023-04-19T15:21:53.322Z,4.55
2023-04-19T15:24:20.148Z,5.80
2023-04-19T15:26:47.094Z,3.67
2023-04-19T15:29:14.422Z,4.07
2023-04-19T15:31:41.569Z,3.85
2023-04-19T15:34:08.628Z,4.60
2023-04-19T15:36:37.304Z,4.55
2023-04-19T15:39:04.359Z,4.80
2023-04-19T15:41:31.209Z,5.43
2023-04-19T15:43:58.358Z,4.72
2023-04-19T15:46:25.355Z,4.60
2023-04-19T15:48:52.311Z,4.25
2023-04-19T15:51:19.148Z,4.53
2023-04-19T15:53:47.529Z,5.18
2023-04-19T15:56:14.361Z,4.63
2023-04-19T15:58:42.176Z,3.97
2023-04-19T16:01:11.799Z,3.95
2023-04-19T16:03:38.768Z,4.82
2023-04-19T16:06:05.922Z,4.40
2023-04-19T16:08:33.158Z,3.95
2023-04-19T16:11:01.450Z,4.22
2023-04-19T16:13:35.799Z,4.20
2023-04-19T16:16:02.738Z,3.95
2023-04-19T16:18:29.576Z,3.80
2023-04-19T16:20:56.700Z,4.13
2023-04-19T16:23:24.243Z,3.72
2023-04-19T16:25:51.629Z,3.83
2023-04-19T16:28:19.905Z,3.55
2023-04-19T16:30:47.563Z,3.65
2023-04-19T16:33:15.849Z,3.97
2023-04-19T16:35:43.031Z,4.07
2023-04-19T16:38:10.030Z,3.40
2023-04-19T16:40:36.964Z,3.33
2023-04-19T16:43:04.881Z,3.30
2023-04-19T16:45:33.243Z,3.28
2023-04-19T16:48:00.219Z,4.15
2023-04-19T16:50:27.356Z,3.83
2023-04-19T16:52:54.271Z,3.65
2023-04-19T16:55:21.721Z,3.97
2023-04-19T16:57:48.656Z,3.50
2023-04-19T17:00:16.022Z,3.30
2023-04-19T17:02:44.333Z,3.30
2023-04-19T17:05:12.668Z,3.22
2023-04-19T17:07:39.687Z,3.60
2023-04-19T17:10:07.733Z,3.50
2023-04-19T17:12:34.706Z,3.22
2023-04-19T17:15:01.748Z,3.60
2023-04-19T17:17:28.645Z,3.58
2023-04-19T17:19:57.815Z,4.20
2023-04-19T17:22:24.914Z,4.03
2023-04-19T17:24:52.115Z,3.78
2023-04-19T17:27:19.025Z,3.97
2023-04-19T17:29:46.017Z,3.53
2023-04-19T17:32:12.865Z,3.40
2023-04-19T17:34:39.729Z,3.63
2023-04-19T17:37:08.023Z,3.83
2023-04-19T17:39:34.901Z,4.03
2023-04-19T17:42:01.992Z,3.70
2023-04-19T17:44:29.032Z,3.95
2023-04-19T17:46:56.223Z,4.47
2023-04-19T17:49:23.142Z,3.95
2023-04-19T17:51:50.081Z,4.63
2023-04-19T17:54:19.550Z,4.38
2023-04-19T17:56:47.461Z,4.72
2023-04-19T17:59:14.524Z,4.72
2023-04-19T18:01:41.665Z,4.35
2023-04-19T18:04:08.859Z,4.47
2023-04-19T18:06:35.901Z,4.47
2023-04-19T18:09:02.769Z,4.13
2023-04-19T18:11:30.994Z,4.72
2023-04-19T18:13:57.847Z,4.90
2023-04-19T18:16:24.734Z,4.75
2023-04-19T18:18:51.768Z,4.30
2023-04-19T18:21:18.704Z,5.13
2023-04-19T18:23:45.703Z,4.50
2023-04-19T18:26:12.622Z,4.72
2023-04-19T18:28:41.190Z,4.28
2023-04-19T18:31:08.709Z,4.40
2023-04-19T18:33:36.426Z,4.53
2023-04-19T18:36:04.807Z,4.38
2023-04-19T18:38:31.768Z,4.22
2023-04-19T18:40:59.219Z,3.95
2023-04-19T18:43:28.271Z,4.32
2023-04-19T18:45:56.903Z,4.63
2023-04-19T18:48:28.418Z,4.15
2023-04-19T18:50:57.181Z,4.30
2023-04-19T18:53:27.817Z,3.72
2023-04-19T18:55:57.640Z,3.92
2023-04-19T18:58:25.672Z,3.60
2023-04-19T19:00:52.666Z,3.95
2023-04-19T19:03:49.919Z,4.38
2023-04-19T19:06:08.577Z,3.58
2023-04-19T19:08:36.554Z,4.25
2023-04-19T19:13:33.405Z,4.63
2023-04-19T19:16:00.340Z,4.60
2023-04-19T19:18:29.513Z,4.10
2023-04-19T19:20:59.326Z,4.35
2023-04-19T19:23:34.934Z,4.47
2023-04-19T19:26:03.976Z,4.57
2023-04-19T19:28:30.809Z,4.70
2023-04-19T19:30:57.698Z,4.75
2023-04-19T19:33:24.633Z,4.38
2023-04-19T19:35:52.829Z,4.15
2023-04-19T19:38:19.689Z,4.07
2023-04-19T19:41:24.726Z,5.03
2023-04-19T19:43:33.943Z,4.88
2023-04-19T19:46:01.977Z,5.10
2023-04-19T19:48:30.253Z,4.78
2023-04-19T19:51:31.371Z,4.38
2023-04-19T19:53:49.333Z,4.70
2023-04-19T19:56:21.770Z,4.38
2023-04-19T19:58:52.139Z,4.32
2023-04-19T20:01:21.992Z,4.22
2023-04-19T20:03:49.876Z,4.90
2023-04-19T20:07:07.817Z,5.57
2023-04-19T20:09:05.107Z,4.85
2023-04-19T20:11:32.041Z,4.88
2023-04-19T20:13:59.062Z,4.88
2023-04-19T20:16:25.925Z,5.72
2023-04-19T20:18:54.628Z,4.93
2023-04-19T20:21:22.888Z,5.60
2023-04-19T20:23:50.037Z,5.50
2023-04-19T20:26:16.868Z,4.82
2023-04-19T20:28:43.782Z,5.53
2023-04-19T20:31:11.115Z,5.43
2023-04-19T20:33:38.017Z,5.22
2023-04-19T20:36:05.030Z,5.35
2023-04-19T20:38:34.581Z,5.75
2023-04-19T20:41:01.826Z,5.97
2023-04-19T20:43:28.665Z,5.68
2023-04-19T20:45:55.556Z,5.80
2023-04-19T20:48:22.708Z,6.10
2023-04-19T20:50:49.632Z,6.43
2023-04-19T20:53:16.472Z,6.85
2023-04-19T20:55:46.355Z,5.68
2023-04-19T20:58:13.268Z,5.93
2023-04-19T21:00:40.079Z,6.65
2023-04-19T21:03:08.209Z,6.53
2023-04-19T21:05:35.414Z,6.35
2023-04-19T21:08:02.285Z,6.75
2023-04-19T21:10:29.725Z,6.45
2023-04-19T21:12:58.085Z,8.05
2023-04-19T21:15:24.998Z,7.22
2023-04-19T21:17:52.014Z,6.70
2023-04-19T21:20:19.060Z,6.57
2023-04-19T21:22:47.197Z,7.18
2023-04-19T21:25:14.119Z,7.00
2023-04-19T21:27:41.809Z,6.43
2023-04-19T21:30:11.723Z,7.80
2023-04-19T21:32:38.794Z,6.70
2023-04-19T21:35:07.408Z,6.40
2023-04-19T21:37:35.964Z,6.78
2023-04-19T21:40:02.925Z,7.82
2023-04-19T21:42:29.817Z,7.72
2023-04-19T21:44:56.614Z,6.15
2023-04-19T21:47:24.875Z,7.28
2023-04-19T21:49:51.678Z,6.85
2023-04-19T21:52:18.577Z,7.63
2023-04-19T21:54:45.625Z,6.68
2023-04-19T21:57:12.941Z,6.30
2023-04-19T21:59:40.157Z,7.13
2023-04-19T22:02:08.802Z,6.82
2023-04-19T22:04:39.615Z,6.15
2023-04-19T22:07:07.936Z,6.88
2023-04-19T22:09:34.799Z,7.30
2023-04-19T22:12:01.656Z,7.07
2023-04-19T22:14:28.584Z,7.22
2023-04-19T22:16:56.637Z,6.20
2023-04-19T22:19:24.611Z,6.18
2023-04-19T22:21:53.587Z,7.35
2023-04-19T22:24:21.855Z,6.07
2023-04-19T22:26:50.119Z,6.57
2023-04-19T22:29:17.572Z,5.90
2023-04-19T22:31:44.630Z,6.30
2023-04-19T22:34:11.447Z,6.82
2023-04-19T22:36:38.365Z,7.30
2023-04-19T22:39:06.600Z,5.93
2023-04-19T22:41:33.547Z,5.60
2023-04-19T22:44:00.620Z,6.25
2023-04-19T22:46:27.654Z,6.88
2023-04-19T22:48:56.124Z,5.65
2023-04-19T22:51:24.344Z,6.05
2023-04-19T22:53:51.224Z,6.70
2023-04-19T22:56:20.163Z,6.13
2023-04-19T22:58:47.077Z,6.43
2023-04-19T23:01:14.017Z,6.35
2023-04-19T23:03:40.891Z,6.38
2023-04-19T23:06:08.334Z,5.93
2023-04-19T23:08:35.733Z,5.40
2023-04-19T23:11:02.655Z,6.60
2023-04-19T23:13:30.942Z,6.43
2023-04-19T23:15:58.510Z,6.00
2023-04-19T23:18:25.388Z,5.88
2023-04-19T23:20:52.207Z,5.82
2023-04-19T23:23:20.671Z,5.45
2023-04-19T23:25:47.565Z,5.70
2023-04-19T23:28:14.440Z,5.80
2023-04-19T23:30:42.697Z,5.57
2023-04-19T23:33:09.525Z,5.63
2023-04-19T23:35:36.360Z,6.10
2023-04-19T23:38:03.237Z,6.03
2023-04-19T23:40:30.148Z,5.30
2023-04-19T23:42:57.014Z,5.65
2023-04-19T23:45:24.148Z,4.80
2023-04-19T23:47:52.539Z,5.10
2023-04-19T23:50:19.516Z,4.90
2023-04-19T23:52:46.473Z,5.47
2023-04-19T23:55:13.278Z,5.85
2023-04-19T23:57:40.559Z,5.00
